Yuma, Arizona
Current Conditions -  °F | °C
As of 12:57 PM on Saturday 20 Dec 2014 (Local Time) from KNYL Reporting Station
Broken Clouds Broken Clouds  
Wind Chill: 66°   Ceiling: 25000
Heat Index: 66°   Visibility: 10mi
Dew Point: 40°   Wind: 5mph
Humidity: 38%   Direction: 50°NE
Pressure: 30.12"   Gusts: NA
Location:  32.68°N, 114.62°W
Report Text: KNYL 201957Z 05004KT 10SM FEW080 SCT120 BKN250 19/04 A3012 RMK AO2 SLP198 T01890044
Loading
Personal Weather Stations






























Interactive Weather Map New forecast layout! Learn more

10-Day Weather Forecast

Advertisements
Track Severe Weather on mobile